Time;durP1;ratioP1;P1;durP2;ratioP2;P2;SDS_P1;SDS_P2;PMS_P1;PMS_P2;Temp;Humidity;BMP_temperature;BMP_pressure;BME280_temperature;BME280_humidity;BME280_pressure;Samples;Min_cycle;Max_cycle;Signal;HPM_P1;HPM_P2
2022/04/17 00:06:15;;;;;;;42.90;20.10;;;;;;;0.64;64.33;99853.50;433116;1269;112435;-45
2022/04/17 00:16:23;;;;;;;37.90;15.60;;;;;;;0.40;64.62;99855.77;433190;1269;108782;-44
2022/04/17 00:26:30;;;;;;;24.10;11.50;;;;;;;0.27;64.79;99848.79;433112;1270;98071;-42
2022/04/17 00:36:37;;;;;;;16.30;9.70;;;;;;;0.29;64.91;99830.63;433017;1270;112557;-44
2022/04/17 00:46:45;;;;;;;33.70;14.80;;;;;;;0.31;65.09;99828.86;433168;1270;108989;-41
2022/04/17 01:06:59;;;;;;;35.60;18.20;;;;;;;0.04;65.80;99814.91;433218;1270;108793;-44
2022/04/17 01:17:03;;;;;;;33.90;17.60;;;;;;;-0.14;65.94;99812.86;433102;1270;99179;-43
2022/04/17 01:27:11;;;;;;;30.10;15.20;;;;;;;-0.31;66.15;99810.83;433463;1261;112163;-44
2022/04/17 01:37:19;;;;;;;28.30;14.20;;;;;;;-0.36;66.59;99799.88;432578;1270;108864;-44
2022/04/17 01:47:26;;;;;;;22.70;13.00;;;;;;;-0.33;66.70;99794.60;432589;1270;99257;-42
2022/04/17 01:57:33;;;;;;;23.10;12.20;;;;;;;-0.28;66.87;99787.71;432578;1271;111256;-40
2022/04/17 02:07:41;;;;;;;36.20;16.30;;;;;;;-0.33;66.99;99784.50;432519;1270;108840;-43
2022/04/17 02:17:48;;;;;;;28.30;17.40;;;;;;;-0.38;67.24;99784.80;432580;1270;99299;-42
2022/04/17 02:27:55;;;;;;;39.00;19.20;;;;;;;-0.62;67.50;99785.69;432604;1270;112431;-44
2022/04/17 02:38:03;;;;;;;26.20;14.90;;;;;;;-0.68;67.59;99786.84;432533;1271;108618;-44
2022/04/17 02:48:10;;;;;;;22.20;14.50;;;;;;;-0.61;67.66;99783.80;432730;1270;99276;-43
2022/04/17 02:58:17;;;;;;;24.80;15.90;;;;;;;-0.44;68.01;99786.72;432496;1270;112473;-43
2022/04/17 03:08:26;;;;;;;27.40;15.10;;;;;;;-0.35;68.43;99786.74;432476;1270;108786;-41
2022/04/17 03:18:32;;;;;;;27.90;15.40;;;;;;;-0.51;68.23;99784.66;432509;1270;99366;-45
2022/04/17 03:28:39;;;;;;;34.20;19.40;;;;;;;-0.70;68.50;99784.22;432527;1270;108864;-43
2022/04/17 03:38:46;;;;;;;28.00;16.00;;;;;;;-0.71;68.83;99788.95;432688;1270;99365;-43
2022/04/17 03:48:53;;;;;;;20.90;13.60;;;;;;;-0.68;68.80;99793.07;432502;1270;112907;-42
2022/04/17 04:09:08;;;;;;;47.90;22.80;;;;;;;-0.21;69.07;99788.67;432496;1270;99257;-42
2022/04/17 04:19:15;;;;;;;58.50;27.70;;;;;;;-0.12;69.22;99788.95;432618;1270;109258;-40
2022/04/17 04:29:22;;;;;;;52.60;24.80;;;;;;;-0.11;69.31;99788.46;432481;1270;99375;-41
2022/04/17 04:39:29;;;;;;;41.70;21.20;;;;;;;-0.01;69.51;99796.25;432669;1270;112492;-42
2022/04/17 04:49:36;;;;;;;44.10;18.80;;;;;;;0.12;69.26;99795.84;432619;1270;108826;-41
2022/04/17 04:59:43;;;;;;;57.10;23.80;;;;;;;0.32;69.44;99803.12;432609;1270;98021;-45
2022/04/17 05:09:50;;;;;;;34.10;15.20;;;;;;;0.61;69.11;99797.19;432549;1270;112248;-44
2022/04/17 05:19:58;;;;;;;21.70;10.60;;;;;;;1.03;69.13;99798.41;432552;1270;108841;-41
2022/04/17 05:30:05;;;;;;;23.00;10.90;;;;;;;1.30;69.30;99804.77;432543;1271;98042;-41
2022/04/17 05:40:14;;;;;;;19.90;10.10;;;;;;;1.43;69.28;99814.91;432478;1271;108748;-40
2022/04/17 05:50:20;;;;;;;23.90;11.50;;;;;;;1.53;69.72;99818.30;432705;1270;98063;-43
2022/04/17 06:00:25;;;;;;;24.10;10.80;;;;;;;1.52;69.90;99822.04;432663;1270;111418;-43
2022/04/17 06:10:32;;;;;;;12.60;8.40;;;;;;;1.66;69.80;99819.85;432537;1270;98448;-44
2022/04/17 06:20:39;;;;;;;12.30;8.00;;;;;;;2.05;69.91;99815.95;432430;1270;99280;-42
2022/04/17 06:30:47;;;;;;;20.40;10.80;;;;;;;3.47;70.65;99810.95;432591;1270;112446;-40
2022/04/17 06:40:54;;;;;;;18.80;10.80;;;;;;;5.09;69.38;99803.23;432625;1270;108835;-44
2022/04/17 06:51:02;;;;;;;17.60;10.60;;;;;;;6.26;68.27;99804.63;432509;1270;98031;-43
2022/04/17 07:01:09;;;;;;;17.80;9.40;;;;;;;6.73;66.72;99806.05;432739;1270;111914;-43
2022/04/17 07:11:19;;;;;;;10.50;6.50;;;;;;;7.22;65.54;99803.73;432529;1269;108930;-40
2022/04/17 07:31:33;;;;;;;12.80;6.00;;;;;;;7.97;62.85;99796.02;432637;1270;112392;-44
2022/04/17 07:41:40;;;;;;;12.50;7.70;;;;;;;7.93;61.94;99788.44;432558;1271;107770;-43
2022/04/17 07:51:47;;;;;;;10.80;5.40;;;;;;;8.22;60.92;99783.88;432536;1270;98841;-43
2022/04/17 08:12:02;;;;;;;11.00;5.40;;;;;;;8.87;59.08;99762.70;432494;1270;109045;-44
2022/04/17 08:22:09;;;;;;;8.10;4.20;;;;;;;8.87;57.57;99758.55;432497;1270;99272;-42
2022/04/17 08:32:16;;;;;;;7.20;4.50;;;;;;;9.18;55.94;99750.21;432559;1270;112477;-43
2022/04/17 08:42:24;;;;;;;6.30;4.10;;;;;;;9.60;54.57;99747.05;432637;1270;108963;-41
2022/04/17 08:52:33;;;;;;;11.40;5.60;;;;;;;8.75;54.67;99733.95;432709;1270;99323;-41
2022/04/17 09:02:40;;;;;;;5.80;3.40;;;;;;;8.65;54.72;99721.90;432617;1270;107692;-47
2022/04/17 09:12:47;;;;;;;4.30;2.20;;;;;;;8.64;53.42;99719.23;432614;1270;99262;-43
2022/04/17 09:33:00;;;;;;;4.40;2.70;;;;;;;8.85;51.97;99704.27;432591;1271;108809;-41
2022/04/17 09:43:08;;;;;;;7.80;2.90;;;;;;;9.10;50.88;99697.55;432459;1273;98860;-42
2022/04/17 09:53:29;;;;;;;3.50;2.60;;;;;;;9.11;50.73;99682.41;432529;1273;113214;-46
2022/04/17 10:03:40;;;;;;;2.90;2.40;;;;;;;9.65;49.28;99671.11;432582;1271;108830;-42
2022/04/17 10:13:49;;;;;;;5.00;3.10;;;;;;;9.16;48.06;99667.95;432515;1271;99263;-43
2022/04/17 10:24:03;;;;;;;4.10;2.60;;;;;;;9.38;47.58;99652.63;432680;1270;112431;-41
2022/04/17 10:34:33;;;;;;;3.10;2.40;;;;;;;9.61;47.12;99636.23;432607;1270;108861;-42
2022/04/17 10:54:52;;;;;;;3.40;2.70;;;;;;;9.15;46.79;99612.01;432588;1270;112326;-45
2022/04/17 11:05:00;;;;;;;3.30;2.80;;;;;;;9.38;47.20;99604.60;432732;1270;109080;-43
2022/04/17 11:35:54;;;;;;;6.50;3.70;;;;;;;9.32;45.66;99582.23;432456;1273;98345;-40
2022/04/17 11:46:07;;;;;;;5.90;3.10;;;;;;;10.01;46.83;99567.89;432653;1273;112363;-43
2022/04/17 11:56:20;;;;;;;6.10;3.00;;;;;;;9.95;44.81;99560.09;432550;1271;108765;-41
2022/04/17 12:06:33;;;;;;;3.70;3.20;;;;;;;9.75;46.06;99550.05;432523;1271;99389;-45
2022/04/17 12:16:54;;;;;;;11.20;5.30;;;;;;;9.71;45.80;99530.41;432651;1271;108770;-45
2022/04/17 12:37:17;;;;;;;10.50;4.70;;;;;;;10.13;46.10;99500.86;432662;1270;111786;-46
2022/04/17 12:47:25;;;;;;;2.30;2.10;;;;;;;10.15;44.32;99482.08;432709;1270;108754;-45
2022/04/17 12:57:32;;;;;;;3.50;2.50;;;;;;;10.17;44.66;99459.47;432556;1271;98850;-41
2022/04/17 13:07:43;;;;;;;6.40;3.60;;;;;;;10.42;43.95;99443.13;432596;1271;109110;-43
2022/04/17 13:17:52;;;;;;;4.20;2.50;;;;;;;10.61;43.51;99429.34;432596;1270;99280;-43
2022/04/17 13:27:59;;;;;;;3.60;2.20;;;;;;;10.78;43.17;99421.24;432580;1271;112506;-46
2022/04/17 13:48:30;;;;;;;3.50;1.70;;;;;;;10.51;42.69;99410.70;432552;1271;98868;-44
2022/04/17 13:58:37;;;;;;;5.40;2.50;;;;;;;10.33;43.23;99403.13;432643;1271;108117;-46
2022/04/17 14:08:44;;;;;;;2.00;1.80;;;;;;;10.22;42.88;99395.14;432538;1271;99271;-44
2022/04/17 14:28:58;;;;;;;3.80;3.10;;;;;;;9.93;42.28;99375.33;432502;1271;109089;-41
2022/04/17 14:39:06;;;;;;;4.60;2.30;;;;;;;9.97;42.79;99357.41;432491;1271;99295;-44
2022/04/17 14:49:13;;;;;;;6.80;2.80;;;;;;;9.85;42.47;99343.45;432467;1271;109232;-42
2022/04/17 14:59:20;;;;;;;6.20;3.50;;;;;;;9.82;42.11;99335.94;432532;1270;97960;-44
2022/04/17 15:09:27;;;;;;;2.50;1.80;;;;;;;9.75;41.97;99331.05;432520;1270;113311;-43
2022/04/17 15:19:35;;;;;;;3.30;1.70;;;;;;;9.58;42.35;99314.18;432499;1270;108867;-42
2022/04/17 15:29:41;;;;;;;3.10;2.30;;;;;;;9.46;42.49;99307.83;432622;1270;98030;-45
2022/04/17 15:39:48;;;;;;;4.20;2.10;;;;;;;9.53;42.36;99299.20;432903;1270;108973;-45
2022/04/17 15:49:55;;;;;;;3.70;2.20;;;;;;;9.64;41.73;99288.36;432742;1270;99154;-43
2022/04/17 16:00:04;;;;;;;5.80;1.90;;;;;;;9.40;41.63;99272.75;432675;1269;112408;-45
2022/04/17 16:10:13;;;;;;;3.80;2.30;;;;;;;9.23;42.09;99270.50;432648;1270;108346;-45
2022/04/17 16:20:21;;;;;;;3.10;2.10;;;;;;;9.12;42.55;99265.11;432716;1269;99267;-42
2022/04/17 16:30:30;;;;;;;3.80;2.10;;;;;;;8.98;42.98;99260.01;432666;1270;112534;-45
2022/04/17 16:40:38;;;;;;;6.30;3.70;;;;;;;8.84;43.27;99262.12;432542;1270;108781;-41
2022/04/17 16:50:45;;;;;;;4.20;2.70;;;;;;;8.80;43.19;99259.41;432694;1270;99469;-45
2022/04/17 17:00:52;;;;;;;3.20;2.20;;;;;;;8.75;43.28;99256.88;432566;1271;109666;-44
2022/04/17 17:11:01;;;;;;;5.70;3.30;;;;;;;8.66;43.45;99253.67;432643;1270;99269;-44
2022/04/17 17:21:08;;;;;;;4.80;3.50;;;;;;;8.51;43.39;99251.59;432756;1270;111709;-42
2022/04/17 17:31:15;;;;;;;5.20;3.90;;;;;;;8.31;43.65;99255.30;432688;1270;109012;-43
2022/04/17 17:41:21;;;;;;;10.60;5.70;;;;;;;8.11;43.76;99260.02;432597;1269;99192;-45
2022/04/17 17:51:29;;;;;;;7.50;4.50;;;;;;;7.90;44.17;99261.73;432773;1270;112488;-41
2022/04/17 18:06:37;;;;;;;11.70;6.40;;;;;;;7.63;45.05;99257.52;420148;1309;636951;-41
2022/04/17 18:16:45;;;;;;;17.10;7.90;;;;;;;7.33;45.63;99257.36;428643;1276;3475801;-42
2022/04/17 18:26:53;;;;;;;19.80;10.70;;;;;;;7.02;46.63;99252.17;432553;1274;108246;-42
2022/04/17 18:37:02;;;;;;;11.50;5.30;;;;;;;6.71;47.66;99249.47;432720;1273;108816;-44
2022/04/17 18:47:09;;;;;;;23.80;8.80;;;;;;;6.42;48.78;99245.86;431641;1274;95636;-42
2022/04/17 18:57:16;;;;;;;14.60;7.00;;;;;;;6.16;49.41;99243.09;432651;1273;95530;-44
2022/04/17 19:17:30;;;;;;;15.70;9.20;;;;;;;5.64;50.84;99230.14;432518;1274;108867;-42
2022/04/17 19:27:39;;;;;;;25.10;11.00;;;;;;;5.43;51.50;99226.52;432699;1273;108806;-42
2022/04/17 19:37:48;;;;;;;28.00;12.70;;;;;;;5.22;52.08;99220.48;432480;1271;95423;-44
2022/04/17 19:47:56;;;;;;;51.80;24.30;;;;;;;4.97;52.52;99217.30;432718;1271;96123;-43
2022/04/17 19:58:04;;;;;;;57.80;24.20;;;;;;;4.64;53.04;99207.68;432611;1271;109905;-47
2022/04/17 20:08:12;;;;;;;64.00;26.80;;;;;;;4.32;53.57;99205.52;432645;1271;108856;-42
2022/04/17 20:18:19;;;;;;;78.40;34.30;;;;;;;4.06;54.17;99201.84;432634;1268;108914;-44
2022/04/17 20:28:26;;;;;;;101.90;40.90;;;;;;;3.82;55.01;99198.98;432635;1271;96163;-44
2022/04/17 20:38:33;;;;;;;98.90;43.70;;;;;;;3.58;55.37;99196.00;432580;1271;95539;-45
2022/04/17 20:59:05;;;;;;;112.50;45.60;;;;;;;3.30;56.16;99181.61;432687;1271;108784;-44
2022/04/17 21:09:12;;;;;;;146.00;54.90;;;;;;;3.16;56.61;99173.92;432683;1271;95514;-45
2022/04/17 21:19:19;;;;;;;115.00;42.30;;;;;;;3.02;56.69;99163.81;432476;1271;96132;-43
2022/04/17 21:29:29;;;;;;;72.20;32.30;;;;;;;2.76;56.72;99157.98;432659;1271;108485;-42
2022/04/17 21:39:37;;;;;;;71.10;31.80;;;;;;;2.47;57.01;99149.43;432618;1271;108887;-43
2022/04/17 21:49:44;;;;;;;62.90;28.40;;;;;;;2.20;57.54;99142.54;432570;1271;108953;-44
2022/04/17 22:10:17;;;;;;;67.30;28.80;;;;;;;1.74;58.50;99134.41;432634;1271;96479;-43
2022/04/17 22:20:24;;;;;;;47.30;20.70;;;;;;;1.55;58.96;99128.41;432692;1271;110045;-44
2022/04/17 22:30:32;;;;;;;42.70;17.90;;;;;;;1.48;59.23;99115.83;432551;1271;108848;-45
2022/04/17 22:40:39;;;;;;;38.40;18.00;;;;;;;1.50;59.62;99105.84;432638;1271;96015;-47
2022/04/17 22:50:47;;;;;;;42.60;20.40;;;;;;;1.48;60.15;99102.60;432524;1271;109706;-45
2022/04/17 23:11:20;;;;;;;52.20;23.90;;;;;;;1.07;60.94;99083.44;432807;1271;108879;-41
2022/04/17 23:21:27;;;;;;;89.80;36.10;;;;;;;0.84;61.05;99076.55;432758;1271;95708;-40
2022/04/17 23:31:34;;;;;;;72.70;31.20;;;;;;;0.57;61.43;99064.95;432581;1271;95680;-44
2022/04/17 23:41:41;;;;;;;53.20;22.40;;;;;;;0.42;61.35;99055.88;432639;1271;109695;-43
2022/04/17 23:51:48;;;;;;;37.80;18.20;;;;;;;0.38;61.67;99041.88;432669;1271;108830;-43
